Flight Track Log - Related Links

Times and Time Zones

All times are in EDT time to prevent confusion due to time zone crossing. See the N93XP flight status page for this flight to view local times or setup timezone preferences in your user account.

Time Position Orientation Groundspeed Altitude Reporting Facility
EDT Latitude Longitude Course Direction KTS MPH feet Rate Location/Type
Sun 03:43:46 PM 39.3297 -80.3525 253° West 247 284 8,000  Level Cleveland Center
Sun 03:44:24 PM 39.3175 -80.3994 251° West 239 275 9,100 1,593 Climbing Indianapolis Center
Sun 03:46:28 PM 39.2469 -80.6075 246° West 305 351 12,300 1,484 Climbing Indianapolis Center
Sun 03:47:30 PM 39.2164 -80.7036 248° West 326 375 13,700 1,484 Climbing Indianapolis Center
Sun 03:48:00 PM 39.0188 -81.0822 249° West  Level FlightAware
Sun 03:49:34 PM 39.1333 -80.9581 247° West 349 402 16,900  Level Indianapolis Center
Sun 03:51:38 PM 39.0561 -81.1903 247° West 351 404 19,800 1,419 Climbing Indianapolis Center
Sun 03:52:40 PM 39.0183 -81.3056 247° West 351 404 21,300 1,306 Climbing Indianapolis Center
Sun 03:53:42 PM 38.9811 -81.4197 247° West 351 404 22,500 1,122 Climbing Indianapolis Center
Sun 03:54:43 PM 38.9331 -81.5608 246° West 358 412 23,600 1,024 Climbing Indianapolis Center
Sun 03:55:45 PM 38.8922 -81.6806 246° West 365 420 24,600 968 Climbing Indianapolis Center
Sun 03:57:49 PM 38.8111 -81.9244 247° West 372 428 26,600 968 Climbing Indianapolis Center
Sun 03:58:51 PM 38.7733 -82.0481 249° West 372 428 27,600 1,016 Climbing Indianapolis Center
Sun 03:59:53 PM 38.7339 -82.1981 251° West 372 428 28,700 968 Climbing Indianapolis Center
Sun 04:00:55 PM 38.6964 -82.3194 248° West 372 428 29,600 871 Climbing Indianapolis Center
Sun 04:01:57 PM 38.6525 -82.4378 245° Southwest 372 428 30,500 726 Climbing Indianapolis Center
Sun 04:02:59 PM 38.5892 -82.5492 234° Southwest 374 430 31,100 581 Climbing Indianapolis Center
Sun 04:04:01 PM 38.5439 -82.6725 245° Southwest 379 436 31,700 532 Climbing Indianapolis Center
Sun 04:05:03 PM 38.4997 -82.7978 246° West 383 441 32,200 581 Climbing Indianapolis Center
Sun 04:06:05 PM 38.4481 -82.9450 246° West 386 444 32,900 629 Climbing Indianapolis Center
Sun 04:07:07 PM 38.4042 -83.0739 247° West 392 451 33,500 532 Climbing Indianapolis Center
Sun 04:08:09 PM 38.3586 -83.2017 246° West 393 452 34,000 242 Climbing Indianapolis Center
Sun 04:09:11 PM 38.3119 -83.3317 245° Southwest 399 459 34,000  Level Indianapolis Center
Sun 04:10:13 PM 38.2650 -83.4658 246° West 409 471 34,000 194 Level Indianapolis Center
Sun 04:11:15 PM 38.2081 -83.6239 245° Southwest 416 479 34,400 683 Climbing Indianapolis Center
Sun 04:12:16 PM 38.1608 -83.7561 246° West 416 479 35,400 780 Climbing Indianapolis Center
Sun 04:13:18 PM 38.1153 -83.8819 245° Southwest 401 461 36,000 231 Climbing Indianapolis Center
Sun 04:14:52 PM 38.0386 -84.0886 245° Southwest 403 464 36,000  Level Memphis Center
Sun 04:15:22 PM 38.0217 -84.1386 247° West 400 460 36,000  Level Indianapolis Center
Sun 04:16:24 PM 37.9722 -84.2728 245° Southwest 411 473 36,000  Level Indianapolis Center
Sun 04:17:26 PM 37.9142 -84.4308 245° Southwest 420 483 36,000 -48 Level Indianapolis Center
Sun 04:18:28 PM 37.8642 -84.5669 245° Southwest 422 486 35,900  Descending Indianapolis Center
Sun 04:19:30 PM 37.8139 -84.7022 245° Southwest 423 487 36,000 97 Climbing Indianapolis Center
Sun 04:20:32 PM 37.7625 -84.8381 244° Southwest 424 488 36,100 48 Climbing Indianapolis Center
Sun 04:21:34 PM 37.7125 -84.9725 245° Southwest 424 488 36,100  Level Indianapolis Center
Sun 04:22:36 PM 37.6531 -85.1300 245° Southwest 424 488 36,100 -48 Level Indianapolis Center
Sun 04:23:38 PM 37.6039 -85.2639 245° Southwest 424 488 36,000 -32 Descending Indianapolis Center
Sun 04:25:42 PM 37.5050 -85.5231 244° Southwest 421 484 36,000  Level Indianapolis Center
Sun 04:26:44 PM 37.4536 -85.6581 244° Southwest 422 486 36,000  Level Indianapolis Center
Sun 04:27:46 PM 37.3908 -85.8200 244° Southwest 424 488 36,000  Level Indianapolis Center
Sun 04:28:48 PM 37.3425 -85.9417 243° Southwest 424 488 36,000  Level Indianapolis Center
Sun 04:29:50 PM 37.2906 -86.0778 244° Southwest 424 488 36,000  Level Indianapolis Center
Sun 04:30:24 PM 37.2553 -86.1650 243° Southwest 425 489 36,000  Level Memphis Center
Sun 04:31:26 PM 37.1967 -86.2950 241° Southwest 426 490 36,000  Level Memphis Center
Sun 04:32:28 PM 37.1281 -86.4169 235° Southwest 425 489 36,000  Level Memphis Center
Sun 04:33:30 PM 37.0617 -86.5411 236° Southwest 426 490 36,000  Level Memphis Center
Sun 04:34:32 PM 36.9953 -86.6653 236° Southwest 426 490 36,000  Level Memphis Center
Sun 04:35:34 PM 36.9172 -86.8103 236° Southwest 427 491 36,000  Level Memphis Center
Sun 04:36:36 PM 36.8506 -86.9353 236° Southwest 428 493 36,000  Level Memphis Center
Sun 04:37:39 PM 36.7842 -87.0589 236° Southwest 428 493 36,000  Level Memphis Center
Sun 04:38:41 PM 36.7186 -87.1825 237° Southwest 428 493 36,000  Level Memphis Center
Sun 04:39:43 PM 36.6519 -87.3067 236° Southwest 428 493 36,000  Level Memphis Center
Sun 04:40:45 PM 36.5858 -87.4292 236° Southwest 428 493 36,000  Level Memphis Center
Sun 04:41:47 PM 36.5092 -87.5722 236° Southwest 427 491 36,000  Level Memphis Center
Sun 04:42:49 PM 36.4436 -87.6972 237° Southwest 427 491 36,000  Level Memphis Center
Sun 04:43:51 PM 36.3786 -87.8200 237° Southwest 427 491 36,000  Level Memphis Center
Sun 04:44:53 PM 36.3125 -87.9431 236° Southwest 427 491 36,000  Level Memphis Center
Sun 04:45:56 PM 36.2481 -88.0656 237° Southwest 426 490 36,000  Level Memphis Center
Sun 04:46:58 PM 36.1817 -88.1906 237° Southwest 425 489 36,000  Level Memphis Center
Sun 04:48:00 PM 36.1186 -88.3125 237° Southwest 425 489 36,000  Level Memphis Center
Sun 04:50:00 PM 36.0326 -88.5485 246° West  Level FlightAware
Sun 04:51:06 PM 35.9517 -88.7328 246° West 425 489 36,000  Level Memphis Center
Sun 04:52:08 PM 35.9053 -88.8681 247° West 425 489 36,000  Level Memphis Center
Sun 04:53:10 PM 35.8561 -89.0036 246° West 425 489 36,000  Level Memphis Center
Sun 04:54:13 PM 35.8089 -89.1397 247° West 425 489 36,000  Level Memphis Center
Sun 04:55:15 PM 35.7603 -89.2756 246° West 427 491 36,000  Level Memphis Center
Sun 04:56:17 PM 35.7114 -89.4122 246° West 430 495 36,000  Level Memphis Center
Sun 04:57:19 PM 35.6558 -89.5689 246° West 431 496 36,000  Level Memphis Center
Sun 04:58:21 PM 35.6089 -89.7031 247° West 431 496 36,000  Level Memphis Center
Sun 04:59:24 PM 35.5600 -89.8375 246° West 431 496 36,000  Level Memphis Center
Sun 05:00:26 PM 35.5117 -89.9706 246° West 431 496 36,000  Level Memphis Center
Sun 05:01:28 PM 35.4531 -90.1294 246° West 431 496 36,000  Level Memphis Center
Sun 05:02:31 PM 35.4044 -90.2631 246° West 431 496 36,000  Level Memphis Center
Sun 05:04:35 PM 35.3072 -90.5264 246° West 429 494 36,000  Level Memphis Center
Sun 05:05:37 PM 35.2486 -90.6822 245° Southwest 426 490 36,000  Level Memphis Center
Sun 05:06:40 PM 35.2003 -90.8108 245° Southwest 424 488 36,000  Level Memphis Center
Sun 05:07:41 PM 35.1517 -90.9406 245° Southwest 423 487 36,000  Level Memphis Center
Sun 05:08:43 PM 35.1033 -91.0706 246° West 423 487 36,000  Level Memphis Center
Sun 05:09:45 PM 35.0550 -91.1989 245° Southwest 423 487 36,000  Level Memphis Center
Sun 05:10:48 PM 35.0053 -91.3300 245° Southwest 423 487 36,000  Level Memphis Center
Sun 05:11:50 PM 34.9517 -91.4675 245° Southwest 423 487 36,000  Level Memphis Center
Sun 05:12:52 PM 34.9031 -91.5964 245° Southwest 423 487 36,000  Level Memphis Center
Sun 05:14:56 PM 34.7933 -91.8819 243° Southwest 423 487 36,000  Level Memphis Center
Sun 05:15:58 PM 34.7428 -92.0108 245° Southwest 423 487 36,000  Level Memphis Center
Sun 05:17:00 PM 34.6933 -92.1403 245° Southwest 422 486 36,000  Level Memphis Center
Sun 05:18:02 PM 34.6533 -92.2764 250° West 427 491 36,000  Level Memphis Center
Sun 05:20:07 PM 34.5731 -92.5783 252° West 427 491 36,000  Level Memphis Center
Sun 05:23:00 PM 34.4703 -92.9603 253° West 426 490 36,000  Level Fort Center
Sun 05:24:02 PM 34.4350 -93.0892 252° West 425 489 36,000  Level Fort Center
Sun 05:25:17 PM 34.3897 -93.2581 252° West 424 488 36,000  Level Memphis Center
Sun 05:26:19 PM 34.3533 -93.3906 252° West 419 482 36,000  Level Memphis Center
Sun 05:27:21 PM 34.3128 -93.5417 252° West 418 481 36,000  Level Memphis Center
Sun 05:28:24 PM 34.2769 -93.6731 252° West 416 479 36,000  Level Memphis Center
Sun 05:29:26 PM 34.2400 -93.8047 251° West 416 479 36,000  Level Memphis Center
Sun 05:30:15 PM 34.2125 -93.9108 253° West 416 479 36,000  Level Fort Center
Sun 05:31:17 PM 34.1722 -94.0683 253° West 411 473 36,000 -194 Level Fort Center
Sun 05:32:19 PM 34.1425 -94.2044 255° West 418 481 35,600 -484 Descending Fort Center
Sun 05:33:21 PM 34.1122 -94.3428 255° West 425 489 35,000 -738 Descending Fort Center
Sun 05:35:26 PM 34.0544 -94.6111 256° West 410 472 33,300 -642 Descending Fort Center
Sun 05:36:28 PM 34.0172 -94.7744 255° West 418 481 33,000 -97 Descending Fort Center
Sun 05:38:32 PM 33.9578 -95.0475 255° West 420 483 33,000 -129 Level Fort Center
Sun 05:39:34 PM 33.9256 -95.1867 254° West 433 498 32,600 -1,065 Descending Fort Center
Sun 05:40:36 PM 33.8939 -95.3256 255° West 434 499 30,800 -2,032 Descending Fort Center
Sun 05:41:38 PM 33.8572 -95.4914 255° West 430 495 28,400 -2,064 Descending Fort Center
Sun 05:42:41 PM 33.8275 -95.6211 255° West 442 509 26,500 -2,160 Descending Fort Center
Sun 05:43:43 PM 33.7883 -95.7908 255° West 441 507 23,900 -2,274 Descending Fort Center
Sun 05:44:45 PM 33.7556 -95.9333 255° West 441 507 21,800 -2,129 Descending Fort Center
Sun 05:45:47 PM 33.7211 -96.0786 254° West 422 486 19,500 -2,129 Descending Fort Center
Sun 05:46:49 PM 33.6911 -96.2089 255° West 409 471 17,400 -2,081 Descending Fort Center
Sun 05:47:51 PM 33.6583 -96.3403 253° West 385 443 15,200 -1,829 Descending Fort Center
Sun 05:49:56 PM 33.5167 -96.5333 246° West 357 411 11,700 -1,316 Descending Dallas TRACON
Sun 05:50:58 PM 33.4519 -96.5939 218° Southwest 304 350 11,100 -726 Descending Fort Center
Sun 05:52:00 PM 33.3886 -96.6594 221° Southwest 283 326 10,200 -1,210 Descending Fort Center
Sun 05:53:02 PM 33.3692 -96.7497 256° West 296 341 8,600 -1,500 Descending Fort Center
Sun 05:54:04 PM 33.3692 -96.8444 270° West 290 334 7,100 -1,742 Descending Fort Center
Sun 05:55:06 PM 33.3700 -96.9419 271° West 279 321 5,000 -1,500 Descending Fort Center
Sun 05:56:08 PM 33.3683 -97.0333 269° West 278 320 4,000 -435 Descending Fort Center
Sun 05:57:10 PM 33.3686 -97.1294 270° West 272 313 4,100 48 Climbing Fort Center
Sun 05:58:13 PM 33.3672 -97.2244 269° West 278 320 4,100 -77 Level Fort Center
Sun 05:59:45 PM 33.2833 -97.3000 217° Southwest 247 284 3,900 -242 Descending Dallas TRACON
Sun 06:00:17 PM 33.2486 -97.3225 208° Southwest 249 287 3,600 -574 Descending Fort Center
Sun 06:01:19 PM 33.1903 -97.3528 203° Southwest 230 265 3,000 -339 Descending Fort Center
Sun 06:02:21 PM 33.1339 -97.3725 196° South 196 226 2,900 -48 Descending Fort Center
Sun 06:03:23 PM 33.0822 -97.3919 198° South 193 222 2,900  Level Fort Center
Sun 06:04:25 PM 33.0208 -97.3953 183° South 205 236 2,900 -96 Level Fort Center
Sun 06:05:28 PM 32.9686 -97.3858 171° South 190 219 2,700 -288 Descending Fort Center
Sun 06:06:30 PM 32.9178 -97.3775 172° South 173 199 2,300 -484 Descending Fort Center
Sun 06:07:32 PM 32.8725 -97.3697 172° South 169 194 1,700 -677 Descending Fort Center
Sun 06:08:34 PM 32.8386 -97.3644 173° South 124 143 900 -774 Descending Fort Center
Sun 06:10:00 PM 32.8167 -97.3500 232° Southwest  Level FlightAware

Login

Don't have an account? Register now (free) for customized features, flight alerts, and more!